createdAt,value
2022-10-12T00:01:20.814Z,55.60
2022-10-12T00:03:49.639Z,55.60
2022-10-12T00:06:21.170Z,55.60
2022-10-12T00:08:52.364Z,55.60
2022-10-12T00:11:25.022Z,55.50
2022-10-12T00:13:56.175Z,55.60
2022-10-12T00:16:25.868Z,55.60
2022-10-12T00:18:55.995Z,55.60
2022-10-12T00:21:27.164Z,55.70
2022-10-12T00:23:58.626Z,55.70
2022-10-12T00:26:27.646Z,55.70
2022-10-12T00:28:59.991Z,55.70
2022-10-12T00:31:30.097Z,55.80
2022-10-12T00:34:02.423Z,55.80
2022-10-12T00:36:34.105Z,55.80
2022-10-12T00:39:05.750Z,55.80
2022-10-12T00:41:37.183Z,55.70
2022-10-12T00:44:40.401Z,55.70
2022-10-12T00:47:23.264Z,56.40
2022-10-12T00:49:59.893Z,55.80
2022-10-12T00:52:36.593Z,55.70
2022-10-12T00:55:07.697Z,55.70
2022-10-12T00:57:36.751Z,55.70
2022-10-12T01:00:11.899Z,55.70
2022-10-12T01:02:43.308Z,55.70
2022-10-12T01:05:13.427Z,55.70
2022-10-12T01:07:42.042Z,55.60
2022-10-12T01:10:11.368Z,55.50
2022-10-12T01:12:41.798Z,55.50
2022-10-12T01:15:13.270Z,55.50
2022-10-12T01:17:53.529Z,55.50
2022-10-12T01:20:56.679Z,55.60
2022-10-12T01:24:20.111Z,55.70
2022-10-12T01:27:44.234Z,55.60
2022-10-12T01:30:22.018Z,55.60
2022-10-12T01:33:21.831Z,55.50
2022-10-12T01:35:59.160Z,55.50
2022-10-12T01:38:42.894Z,55.60
2022-10-12T01:41:20.002Z,56.10
2022-10-12T01:43:51.230Z,55.70
2022-10-12T01:46:45.217Z,55.70
2022-10-12T01:49:18.400Z,55.80
2022-10-12T01:52:03.968Z,55.70
2022-10-12T01:54:47.849Z,55.80
2022-10-12T01:57:23.137Z,55.80
2022-10-12T02:00:03.161Z,55.80
2022-10-12T02:02:46.045Z,55.80
2022-10-12T02:05:24.243Z,55.80
2022-10-12T02:07:58.547Z,55.80
2022-10-12T02:10:34.602Z,55.70
2022-10-12T02:13:08.113Z,55.70
2022-10-12T02:15:38.236Z,55.80
2022-10-12T02:18:09.984Z,55.80
2022-10-12T02:20:41.648Z,55.90
2022-10-12T02:23:12.000Z,55.90
2022-10-12T02:25:40.989Z,55.90
2022-10-12T02:28:12.854Z,55.90
2022-10-12T02:30:49.897Z,55.90
2022-10-12T02:33:26.691Z,55.90
2022-10-12T02:36:03.743Z,55.90
2022-10-12T02:38:36.262Z,55.90
2022-10-12T02:41:09.615Z,55.80
2022-10-12T02:43:41.441Z,55.90
2022-10-12T02:46:12.060Z,55.90
2022-10-12T02:48:43.098Z,55.90
2022-10-12T02:51:12.906Z,55.90
2022-10-12T02:53:42.260Z,55.90
2022-10-12T02:56:14.640Z,55.90
2022-10-12T02:58:45.838Z,55.90
2022-10-12T03:01:16.995Z,56.00
2022-10-12T03:03:47.608Z,56.00
2022-10-12T03:06:16.237Z,55.90
2022-10-12T03:08:44.747Z,55.90
2022-10-12T03:11:15.107Z,55.90
2022-10-12T03:13:43.694Z,55.80
2022-10-12T03:16:13.299Z,55.80
2022-10-12T03:18:41.973Z,55.70
2022-10-12T03:21:12.253Z,55.70
2022-10-12T03:23:40.806Z,55.70
2022-10-12T03:26:09.964Z,55.70
2022-10-12T03:28:38.600Z,55.70
2022-10-12T03:31:07.389Z,55.70
2022-10-12T03:33:35.946Z,55.80
2022-10-12T03:36:04.856Z,55.80
2022-10-12T03:38:34.808Z,55.80
2022-10-12T03:41:06.726Z,55.80
2022-10-12T03:43:36.403Z,55.80
2022-10-12T03:46:04.989Z,55.90
2022-10-12T03:48:33.700Z,55.90
2022-10-12T03:51:02.812Z,56.00
2022-10-12T03:53:31.603Z,56.00
2022-10-12T03:56:02.248Z,56.60
2022-10-12T03:58:30.911Z,56.10
2022-10-12T04:00:59.514Z,56.10
2022-10-12T04:03:28.192Z,56.10
2022-10-12T04:05:58.696Z,56.10
2022-10-12T04:08:28.567Z,56.20
2022-10-12T04:10:57.391Z,56.20
2022-10-12T04:13:27.382Z,56.20
2022-10-12T04:15:55.977Z,56.20
2022-10-12T04:18:24.635Z,56.10
2022-10-12T04:20:53.176Z,56.20
2022-10-12T04:23:21.821Z,56.20
2022-10-12T04:25:50.428Z,56.20
2022-10-12T04:28:19.053Z,56.30
2022-10-12T04:30:49.006Z,56.30
2022-10-12T04:33:17.735Z,56.20
2022-10-12T04:35:46.341Z,56.30
2022-10-12T04:38:15.277Z,56.30
2022-10-12T04:40:48.673Z,56.30
2022-10-12T04:43:17.883Z,56.30
2022-10-12T04:45:54.403Z,56.30
2022-10-12T04:48:23.484Z,56.20
2022-10-12T04:50:52.292Z,56.20
2022-10-12T04:53:21.068Z,56.20
2022-10-12T04:55:49.688Z,56.20
2022-10-12T04:58:18.369Z,56.30
2022-10-12T05:00:49.719Z,56.30
2022-10-12T05:03:18.358Z,56.40
2022-10-12T05:05:46.951Z,56.40
2022-10-12T05:08:15.558Z,56.40
2022-10-12T05:10:44.332Z,56.40
2022-10-12T05:13:13.034Z,56.50
2022-10-12T05:15:43.117Z,56.50
2022-10-12T05:18:13.256Z,56.50
2022-10-12T05:20:41.831Z,56.50
2022-10-12T05:23:12.316Z,56.50
2022-10-12T05:25:41.432Z,56.50
2022-10-12T05:28:10.041Z,56.50
2022-10-12T05:30:38.681Z,56.50
2022-10-12T05:33:07.362Z,56.50
2022-10-12T05:35:37.334Z,56.60
2022-10-12T05:38:05.946Z,56.70
2022-10-12T05:40:34.681Z,56.60
2022-10-12T05:43:03.304Z,56.60
2022-10-12T05:45:31.852Z,56.50
2022-10-12T05:48:00.485Z,56.60
2022-10-12T05:50:29.007Z,56.60
2022-10-12T05:52:59.012Z,56.60
2022-10-12T05:55:27.676Z,56.60
2022-10-12T05:57:56.225Z,56.70
2022-10-12T06:00:24.773Z,56.70
2022-10-12T06:02:53.357Z,56.80
2022-10-12T06:05:21.877Z,56.90
2022-10-12T06:07:50.380Z,56.90
2022-10-12T06:10:20.364Z,57.00
2022-10-12T06:12:48.927Z,57.10
2022-10-12T06:15:17.600Z,57.10
2022-10-12T06:17:46.245Z,57.10
2022-10-12T06:20:14.808Z,57.00
2022-10-12T06:22:43.343Z,57.00
2022-10-12T06:25:11.914Z,56.90
2022-10-12T06:27:41.821Z,56.90
2022-10-12T06:30:11.611Z,57.00
2022-10-12T06:32:40.664Z,57.00
2022-10-12T06:35:10.931Z,56.90
2022-10-12T06:37:49.988Z,57.00
2022-10-12T06:40:19.564Z,57.00
2022-10-12T06:42:53.798Z,57.00
2022-10-12T06:45:26.257Z,57.10
2022-10-12T06:47:54.768Z,57.10
2022-10-12T06:50:23.298Z,57.20
2022-10-12T06:52:51.995Z,57.30
2022-10-12T06:55:20.819Z,57.40
2022-10-12T06:57:50.748Z,57.50
2022-10-12T07:00:19.614Z,57.60
2022-10-12T07:02:51.258Z,57.60
2022-10-12T07:05:21.063Z,57.60
2022-10-12T07:07:49.761Z,57.60
2022-10-12T07:10:18.524Z,57.60
2022-10-12T07:12:47.116Z,57.60
2022-10-12T07:15:17.165Z,57.60
2022-10-12T07:17:45.693Z,57.70
2022-10-12T07:20:14.349Z,57.60
2022-10-12T07:22:44.567Z,57.60
2022-10-12T07:25:13.123Z,57.60
2022-10-12T07:27:41.983Z,57.60
2022-10-12T07:30:13.303Z,57.60
2022-10-12T07:32:44.677Z,57.60
2022-10-12T07:35:13.236Z,57.60
2022-10-12T07:37:42.166Z,57.60
2022-10-12T07:40:11.755Z,57.70
2022-10-12T07:42:59.250Z,57.70
2022-10-12T07:45:29.607Z,57.90
2022-10-12T07:47:59.545Z,57.90
2022-10-12T07:50:28.123Z,58.00
2022-10-12T07:52:56.711Z,58.10
2022-10-12T07:55:25.244Z,58.20
2022-10-12T07:57:53.743Z,58.30
2022-10-12T08:00:22.453Z,58.30
2022-10-12T08:02:51.020Z,58.50
2022-10-12T08:05:22.365Z,58.50
2022-10-12T08:07:51.926Z,58.70
2022-10-12T08:10:21.273Z,58.70
2022-10-12T08:12:52.291Z,58.80
2022-10-12T08:15:21.044Z,58.90
2022-10-12T08:17:49.613Z,58.90
2022-10-12T08:20:18.338Z,58.90
2022-10-12T08:22:48.322Z,59.10
2022-10-12T08:25:17.007Z,59.20
2022-10-12T08:27:45.529Z,59.30
2022-10-12T08:30:15.209Z,59.30
2022-10-12T08:32:43.729Z,59.50
2022-10-12T08:35:12.236Z,59.60
2022-10-12T08:37:40.954Z,59.60
2022-10-12T08:40:15.648Z,59.50
2022-10-12T08:42:55.609Z,59.50
2022-10-12T08:45:38.047Z,59.60
2022-10-12T08:48:14.375Z,59.60
2022-10-12T08:50:48.821Z,59.50
2022-10-12T08:53:23.938Z,59.50
2022-10-12T08:55:54.190Z,59.50
2022-10-12T08:58:26.238Z,59.50
2022-10-12T09:01:00.574Z,59.50
2022-10-12T09:03:46.611Z,59.60
2022-10-12T09:06:20.355Z,59.80
2022-10-12T09:09:12.332Z,59.60
2022-10-12T09:12:03.257Z,59.80
2022-10-12T09:14:35.383Z,59.70
2022-10-12T09:17:16.987Z,59.40
2022-10-12T09:19:45.545Z,59.30
2022-10-12T09:22:21.001Z,59.30
2022-10-12T09:24:52.954Z,59.40
2022-10-12T09:27:22.846Z,59.20
2022-10-12T09:29:57.949Z,59.10
2022-10-12T09:32:56.221Z,59.10
2022-10-12T09:35:25.497Z,59.10
2022-10-12T09:37:55.843Z,58.90
2022-10-12T09:40:28.269Z,58.80
2022-10-12T09:43:01.088Z,58.70
2022-10-12T09:45:32.333Z,58.60
2022-10-12T09:48:14.025Z,58.50
2022-10-12T09:50:46.441Z,58.40
2022-10-12T09:53:28.454Z,58.90
2022-10-12T09:56:06.605Z,58.20
2022-10-12T09:58:43.478Z,58.10
2022-10-12T10:01:24.999Z,58.10
2022-10-12T10:04:13.134Z,58.10
2022-10-12T10:06:44.733Z,58.00
2022-10-12T10:09:31.128Z,58.10
2022-10-12T10:12:13.510Z,58.10
2022-10-12T10:14:45.878Z,58.00
2022-10-12T10:17:23.793Z,57.90
2022-10-12T10:19:54.254Z,57.80
2022-10-12T10:22:24.881Z,57.80
2022-10-12T10:25:00.179Z,57.70
2022-10-12T10:27:37.615Z,57.60
2022-10-12T10:30:32.656Z,57.50
2022-10-12T10:33:16.903Z,57.30
2022-10-12T10:36:06.077Z,57.20
2022-10-12T10:38:54.671Z,57.00
2022-10-12T10:41:27.737Z,56.90
2022-10-12T10:43:56.932Z,56.90
2022-10-12T10:46:31.214Z,56.60
2022-10-12T10:49:06.604Z,56.40
2022-10-12T10:51:44.967Z,56.30
2022-10-12T10:54:18.605Z,56.10
2022-10-12T10:56:48.051Z,55.80
2022-10-12T10:59:41.764Z,55.80
2022-10-12T11:02:24.981Z,55.50
2022-10-12T11:04:59.809Z,55.20
2022-10-12T11:07:32.877Z,55.20
2022-10-12T11:10:05.852Z,54.80
2022-10-12T11:12:42.417Z,54.70
2022-10-12T11:15:22.075Z,54.50
2022-10-12T11:17:59.021Z,54.40
2022-10-12T11:20:38.471Z,54.40
2022-10-12T11:23:21.213Z,54.00
2022-10-12T11:26:13.480Z,54.00
2022-10-12T11:28:43.132Z,53.70
2022-10-12T11:31:22.790Z,53.80
2022-10-12T11:33:55.407Z,53.40
2022-10-12T11:36:28.564Z,53.30
2022-10-12T11:39:06.708Z,53.20
2022-10-12T11:42:03.328Z,53.00
2022-10-12T11:44:42.619Z,52.80
2022-10-12T11:47:18.996Z,52.60
2022-10-12T11:49:55.414Z,52.40
2022-10-12T11:52:28.983Z,52.30
2022-10-12T11:55:13.269Z,52.50
2022-10-12T11:57:42.276Z,52.40
2022-10-12T12:00:22.538Z,52.40
2022-10-12T12:02:57.817Z,51.90
2022-10-12T12:05:33.259Z,51.90
2022-10-12T12:08:01.965Z,51.60
2022-10-12T12:11:11.374Z,51.70
2022-10-12T12:13:39.885Z,50.90
2022-10-12T12:16:33.848Z,51.50
2022-10-12T12:19:19.613Z,50.50
2022-10-12T12:22:29.773Z,50.50
2022-10-12T12:25:17.046Z,50.30
2022-10-12T12:27:49.690Z,50.60
2022-10-12T12:30:38.511Z,50.80
2022-10-12T12:33:30.144Z,50.30
2022-10-12T12:36:02.085Z,50.60
2022-10-12T12:38:35.254Z,50.50
2022-10-12T12:41:11.576Z,50.30
2022-10-12T12:43:57.516Z,50.30
2022-10-12T12:47:44.414Z,49.80
2022-10-12T12:50:33.512Z,50.10
2022-10-12T12:53:08.368Z,49.60
2022-10-12T12:56:04.836Z,49.80
2022-10-12T12:59:06.756Z,49.60
2022-10-12T13:01:58.241Z,49.70
2022-10-12T13:04:47.470Z,50.00
2022-10-12T13:07:57.329Z,49.60
2022-10-12T13:11:00.373Z,49.50
2022-10-12T13:13:53.129Z,49.80
2022-10-12T13:17:30.777Z,49.80
2022-10-12T13:19:34.877Z,50.00
2022-10-12T13:22:07.530Z,50.30
2022-10-12T13:24:45.960Z,50.10
2022-10-12T13:27:22.880Z,50.00
2022-10-12T13:29:58.249Z,49.90
2022-10-12T13:32:38.203Z,50.00
2022-10-12T13:35:19.044Z,49.80
2022-10-12T13:38:01.910Z,49.80
2022-10-12T13:40:38.239Z,49.90
2022-10-12T13:43:29.339Z,49.80
2022-10-12T13:45:59.303Z,49.50
2022-10-12T13:48:53.890Z,49.80
2022-10-12T13:51:29.638Z,49.60
2022-10-12T13:53:59.011Z,49.40
2022-10-12T13:56:30.493Z,49.70
2022-10-12T13:59:06.870Z,49.70
2022-10-12T14:02:00.697Z,49.80
2022-10-12T14:04:31.712Z,49.70
2022-10-12T14:07:05.533Z,50.10
2022-10-12T14:09:42.736Z,50.10
2022-10-12T14:12:12.743Z,50.10
2022-10-12T14:14:44.810Z,50.20
2022-10-12T14:17:18.540Z,50.10
2022-10-12T14:19:51.364Z,50.00
2022-10-12T14:22:26.629Z,50.00
2022-10-12T14:25:10.676Z,49.80
2022-10-12T14:27:40.848Z,49.90
2022-10-12T14:30:19.997Z,50.00
2022-10-12T14:32:51.778Z,49.80
2022-10-12T14:35:26.567Z,49.90
2022-10-12T14:37:57.174Z,49.90
2022-10-12T14:40:34.276Z,49.90
2022-10-12T14:43:08.068Z,49.90
2022-10-12T14:45:37.067Z,49.90
2022-10-12T14:48:15.647Z,49.90
2022-10-12T14:50:45.349Z,49.60
2022-10-12T14:53:15.523Z,49.90
2022-10-12T14:55:46.907Z,49.90
2022-10-12T14:58:18.327Z,49.80
2022-10-12T15:00:47.098Z,49.80
2022-10-12T15:03:18.030Z,49.80
2022-10-12T15:05:46.623Z,49.90
2022-10-12T15:08:15.137Z,50.00
2022-10-12T15:10:44.055Z,50.00
2022-10-12T15:13:14.640Z,50.10
2022-10-12T15:15:46.547Z,50.20
2022-10-12T15:18:16.529Z,50.30
2022-10-12T15:20:49.427Z,50.30
2022-10-12T15:23:18.757Z,50.40
2022-10-12T15:25:52.991Z,50.50
2022-10-12T15:28:22.961Z,50.50
2022-10-12T15:31:16.033Z,50.60
2022-10-12T15:33:43.215Z,50.60
2022-10-12T15:36:12.134Z,50.60
2022-10-12T15:38:41.120Z,50.50
2022-10-12T15:41:17.725Z,50.50
2022-10-12T15:43:46.368Z,50.50
2022-10-12T15:46:14.935Z,50.50
2022-10-12T15:48:44.805Z,50.60
2022-10-12T15:51:20.756Z,50.60
2022-10-12T15:53:49.975Z,50.50
2022-10-12T15:56:19.749Z,50.60
2022-10-12T15:58:48.765Z,50.50
2022-10-12T16:01:19.742Z,50.50
2022-10-12T16:03:50.204Z,50.60
2022-10-12T16:06:19.447Z,50.60
2022-10-12T16:08:48.095Z,50.60
2022-10-12T16:11:19.053Z,50.70
2022-10-12T16:13:55.427Z,50.80
2022-10-12T16:16:25.460Z,50.80
2022-10-12T16:18:55.450Z,50.80
2022-10-12T16:21:24.041Z,50.90
2022-10-12T16:23:52.600Z,51.00
2022-10-12T16:26:21.358Z,51.00
2022-10-12T16:28:49.935Z,51.00
2022-10-12T16:31:18.823Z,51.10
2022-10-12T16:33:47.431Z,51.20
2022-10-12T16:36:18.607Z,51.20
2022-10-12T16:38:47.378Z,51.30
2022-10-12T16:41:18.745Z,51.30
2022-10-12T16:43:47.382Z,51.40
2022-10-12T16:46:15.992Z,51.30
2022-10-12T16:48:45.145Z,51.40
2022-10-12T16:51:16.141Z,51.50
2022-10-12T16:53:44.700Z,51.50
2022-10-12T16:56:13.315Z,51.50
2022-10-12T16:58:41.927Z,51.60
2022-10-12T17:01:11.992Z,51.60
2022-10-12T17:03:40.578Z,51.60
2022-10-12T17:06:09.783Z,51.70
2022-10-12T17:08:40.132Z,51.70
2022-10-12T17:11:10.928Z,51.80
2022-10-12T17:13:44.036Z,51.90
2022-10-12T17:16:29.129Z,51.90
2022-10-12T17:18:59.747Z,51.90
2022-10-12T17:21:28.725Z,52.00
2022-10-12T17:24:00.421Z,52.00
2022-10-12T17:26:29.901Z,52.00
2022-10-12T17:28:58.454Z,52.10
2022-10-12T17:31:27.140Z,52.30
2022-10-12T17:33:55.690Z,52.10
2022-10-12T17:36:28.048Z,52.10
2022-10-12T17:39:00.199Z,52.20
2022-10-12T17:41:30.444Z,52.20
2022-10-12T17:43:59.234Z,52.30
2022-10-12T17:46:28.187Z,52.20
2022-10-12T17:48:57.599Z,52.30
2022-10-12T17:51:27.184Z,52.40
2022-10-12T17:53:55.736Z,52.40
2022-10-12T17:56:26.377Z,52.40
2022-10-12T17:58:56.192Z,52.50
2022-10-12T18:01:25.581Z,52.60
2022-10-12T18:03:55.444Z,52.50
2022-10-12T18:06:25.755Z,52.60
2022-10-12T18:08:55.148Z,52.60
2022-10-12T18:11:26.055Z,52.70
2022-10-12T18:13:57.753Z,52.70
2022-10-12T18:16:29.192Z,52.80
2022-10-12T18:18:59.733Z,52.80
2022-10-12T18:21:31.967Z,52.80
2022-10-12T18:24:03.696Z,52.90
2022-10-12T18:26:33.754Z,52.90
2022-10-12T18:29:03.279Z,52.80
2022-10-12T18:31:32.161Z,52.90
2022-10-12T18:34:00.824Z,52.90
2022-10-12T18:36:29.341Z,52.90
2022-10-12T18:39:00.725Z,52.90
2022-10-12T18:41:29.485Z,53.00
2022-10-12T18:44:01.239Z,53.00
2022-10-12T18:46:32.318Z,53.10
2022-10-12T18:49:04.994Z,53.10
2022-10-12T18:51:36.177Z,53.10
2022-10-12T18:54:06.068Z,53.20
2022-10-12T18:56:37.882Z,53.20
2022-10-12T18:59:09.696Z,53.30
2022-10-12T19:01:38.347Z,53.30
2022-10-12T19:04:07.900Z,53.40
2022-10-12T19:06:39.265Z,54.00
2022-10-12T19:09:07.912Z,53.40
2022-10-12T19:11:37.348Z,53.50
2022-10-12T19:14:14.749Z,53.50
2022-10-12T19:16:44.427Z,53.60
2022-10-12T19:19:20.799Z,53.60
2022-10-12T19:21:51.390Z,53.60
2022-10-12T19:24:21.339Z,53.60
2022-10-12T19:26:50.261Z,53.60
2022-10-12T19:29:20.293Z,53.60
2022-10-12T19:31:50.642Z,53.70
2022-10-12T19:34:23.694Z,53.70
2022-10-12T19:36:53.008Z,53.80
2022-10-12T19:39:24.239Z,53.80
2022-10-12T19:41:53.333Z,53.80
2022-10-12T19:44:23.482Z,53.80
2022-10-12T19:46:53.627Z,53.80
2022-10-12T19:49:22.337Z,53.80
2022-10-12T19:51:50.888Z,53.90
2022-10-12T19:54:19.720Z,53.80
2022-10-12T19:56:48.309Z,53.90
2022-10-12T19:59:16.863Z,53.90
2022-10-12T20:01:48.249Z,53.90
2022-10-12T20:04:17.003Z,54.00
2022-10-12T20:06:45.702Z,54.00
2022-10-12T20:09:14.201Z,54.00
2022-10-12T20:11:43.004Z,54.00
2022-10-12T20:14:12.291Z,54.10
2022-10-12T20:16:40.919Z,54.00
2022-10-12T20:19:10.900Z,54.00
2022-10-12T20:21:39.493Z,54.10
2022-10-12T20:24:10.766Z,54.10
2022-10-12T20:26:39.825Z,54.10
2022-10-12T20:29:08.636Z,54.10
2022-10-12T20:31:37.329Z,54.20
2022-10-12T20:34:06.370Z,54.10
2022-10-12T20:36:36.951Z,54.20
2022-10-12T20:39:05.649Z,54.30
2022-10-12T20:41:34.246Z,54.30
2022-10-12T20:44:03.278Z,54.40
2022-10-12T20:46:32.244Z,54.40
2022-10-12T20:49:03.171Z,54.40
2022-10-12T20:51:36.955Z,54.50
2022-10-12T20:54:08.864Z,54.50
2022-10-12T20:56:41.949Z,54.50
2022-10-12T20:59:11.628Z,54.60
2022-10-12T21:01:40.346Z,54.60
2022-10-12T21:04:10.168Z,54.60
2022-10-12T21:06:41.583Z,54.70
2022-10-12T21:09:14.258Z,54.80
2022-10-12T21:11:43.803Z,54.80
2022-10-12T21:14:13.413Z,54.80
2022-10-12T21:16:42.010Z,55.40
2022-10-12T21:19:16.236Z,54.80
2022-10-12T21:21:47.551Z,54.90
2022-10-12T21:24:16.848Z,54.90
2022-10-12T21:26:46.254Z,54.90
2022-10-12T21:29:15.018Z,54.90
2022-10-12T21:31:43.801Z,54.90
2022-10-12T21:34:12.992Z,54.90
2022-10-12T21:36:42.264Z,54.90
2022-10-12T21:39:15.615Z,54.90
2022-10-12T21:41:45.035Z,55.00
2022-10-12T21:44:13.926Z,54.90
2022-10-12T21:46:42.672Z,54.90
2022-10-12T21:49:15.306Z,55.00
2022-10-12T21:51:44.155Z,55.00
2022-10-12T21:54:14.321Z,55.00
2022-10-12T21:56:43.071Z,55.00
2022-10-12T21:59:11.949Z,55.00
2022-10-12T22:01:41.920Z,55.00
2022-10-12T22:04:16.009Z,55.00
2022-10-12T22:06:44.753Z,55.10
2022-10-12T22:09:19.007Z,55.10
2022-10-12T22:11:47.816Z,55.20
2022-10-12T22:14:18.729Z,55.10
2022-10-12T22:16:47.577Z,55.10
2022-10-12T22:19:19.564Z,55.10
2022-10-12T22:21:49.082Z,55.10
2022-10-12T22:24:19.865Z,55.20
2022-10-12T22:26:48.485Z,55.20
2022-10-12T22:29:17.008Z,55.20
2022-10-12T22:31:46.414Z,55.30
2022-10-12T22:34:16.812Z,55.30
2022-10-12T22:36:45.313Z,55.30
2022-10-12T22:39:14.440Z,55.30
2022-10-12T22:41:47.343Z,55.30
2022-10-12T22:44:15.938Z,55.30
2022-10-12T22:46:44.913Z,55.30
2022-10-12T22:49:13.407Z,55.30
2022-10-12T22:51:41.984Z,55.40
2022-10-12T22:54:13.251Z,55.40
2022-10-12T22:56:43.153Z,55.40
2022-10-12T22:59:16.001Z,55.30
2022-10-12T23:01:45.126Z,55.40
2022-10-12T23:04:13.661Z,55.40
2022-10-12T23:06:42.163Z,55.40
2022-10-12T23:09:10.824Z,55.40
2022-10-12T23:11:39.352Z,55.50
2022-10-12T23:14:08.048Z,55.50
2022-10-12T23:16:38.009Z,55.60
2022-10-12T23:19:07.559Z,55.60
2022-10-12T23:21:36.486Z,55.60
2022-10-12T23:24:06.498Z,55.60
2022-10-12T23:26:35.636Z,55.60
2022-10-12T23:29:04.556Z,55.70
2022-10-12T23:31:35.610Z,55.70
2022-10-12T23:34:07.574Z,55.80
2022-10-12T23:36:36.528Z,55.90
2022-10-12T23:39:06.661Z,55.90
2022-10-12T23:41:35.384Z,55.90
2022-10-12T23:44:04.099Z,56.00
2022-10-12T23:46:32.651Z,56.00
2022-10-12T23:49:01.338Z,56.00
2022-10-12T23:51:31.301Z,56.00
2022-10-12T23:53:59.905Z,56.10
2022-10-12T23:56:28.893Z,56.10
2022-10-12T23:58:57.471Z,56.10
